createdAt,value
2016-11-01T00:00:58.686Z,0
2016-11-01T00:02:12.425Z,0
2016-11-01T00:03:26.169Z,0
2016-11-01T00:04:39.781Z,0
2016-11-01T00:05:53.408Z,0
2016-11-01T00:07:06.454Z,0
2016-11-01T00:08:20.179Z,0
2016-11-01T00:09:33.735Z,0
2016-11-01T00:10:47.411Z,0
2016-11-01T00:12:01.092Z,0
2016-11-01T00:13:14.735Z,0
2016-11-01T00:14:27.352Z,0
2016-11-01T00:15:40.682Z,0
2016-11-01T00:16:53.796Z,0
2016-11-01T00:18:06.617Z,0
2016-11-01T00:19:19.433Z,0
2016-11-01T00:20:32.551Z,0
2016-11-01T00:21:46.278Z,0
2016-11-01T00:22:59.393Z,0
2016-11-01T00:24:12.584Z,0
2016-11-01T00:25:26.413Z,0
2016-11-01T00:26:40.168Z,0
2016-11-01T00:27:52.808Z,0
2016-11-01T00:29:06.451Z,0
2016-11-01T00:30:20.135Z,0
2016-11-01T00:31:33.494Z,0
2016-11-01T00:32:45.793Z,0
2016-11-01T00:33:59.131Z,0
2016-11-01T00:35:12.252Z,0
2016-11-01T00:36:25.417Z,0
2016-11-01T00:37:39.109Z,0
2016-11-01T00:38:52.146Z,0
2016-11-01T00:40:05.851Z,0
2016-11-01T00:41:19.546Z,0
2016-11-01T00:42:33.179Z,0
2016-11-01T00:43:46.292Z,0
2016-11-01T00:44:59.399Z,0
2016-11-01T00:46:13.070Z,0
2016-11-01T00:47:25.628Z,0
2016-11-01T00:48:39.364Z,0
2016-11-01T00:49:52.967Z,0
2016-11-01T00:51:05.855Z,0
2016-11-01T00:52:19.540Z,0
2016-11-01T00:53:33.184Z,0
2016-11-01T00:54:45.754Z,0
2016-11-01T00:55:59.389Z,0
2016-11-01T00:57:12.969Z,0
2016-11-01T00:58:26.615Z,0
2016-11-01T00:59:39.701Z,0
2016-11-01T01:00:53.456Z,0
2016-11-01T01:02:06.566Z,0
2016-11-01T01:03:19.668Z,0
2016-11-01T01:04:33.274Z,0
2016-11-01T01:05:46.374Z,0
2016-11-01T01:06:59.599Z,0
2016-11-01T01:08:13.188Z,0
2016-11-01T01:09:26.853Z,0
2016-11-01T01:10:40.456Z,0
2016-11-01T01:11:54.078Z,0
2016-11-01T01:13:07.934Z,0
2016-11-01T01:14:21.666Z,0
2016-11-01T01:15:34.774Z,0
2016-11-01T01:16:48.478Z,0
2016-11-01T01:18:01.821Z,0
2016-11-01T01:19:15.221Z,0
2016-11-01T01:20:28.871Z,0
2016-11-01T01:21:41.965Z,0
2016-11-01T01:22:54.536Z,0
2016-11-01T01:24:08.150Z,0
2016-11-01T01:25:21.752Z,0
2016-11-01T01:26:35.402Z,0
2016-11-01T01:27:48.050Z,0
2016-11-01T01:29:01.156Z,0
2016-11-01T01:30:14.805Z,0
2016-11-01T01:31:28.427Z,0
2016-11-01T01:32:42.191Z,0
2016-11-01T01:33:55.328Z,0
2016-11-01T01:35:08.983Z,0
2016-11-01T01:36:22.045Z,0
2016-11-01T01:37:35.132Z,0
2016-11-01T01:38:48.837Z,0
2016-11-01T01:40:02.487Z,0
2016-11-01T01:41:16.068Z,0
2016-11-01T01:42:29.438Z,0
2016-11-01T01:43:43.050Z,0
2016-11-01T01:44:56.735Z,0
2016-11-01T01:46:11.160Z,0
2016-11-01T01:47:24.298Z,0
2016-11-01T01:48:37.972Z,0
2016-11-01T01:49:51.620Z,0
2016-11-01T01:51:05.230Z,0
2016-11-01T01:52:18.870Z,0
2016-11-01T01:53:31.966Z,0
2016-11-01T01:54:45.096Z,0
2016-11-01T01:55:58.743Z,0
2016-11-01T01:57:12.355Z,0
2016-11-01T01:58:25.992Z,0
2016-11-01T01:59:38.612Z,0
2016-11-01T02:00:52.305Z,0
2016-11-01T02:02:06.002Z,0
2016-11-01T02:03:19.125Z,0
2016-11-01T02:04:32.799Z,0
2016-11-01T02:05:46.392Z,0
2016-11-01T02:06:59.482Z,0
2016-11-01T02:08:12.618Z,0
2016-11-01T02:09:26.008Z,0
2016-11-01T02:10:39.615Z,0
2016-11-01T02:11:52.699Z,0
2016-11-01T02:13:05.779Z,0
2016-11-01T02:14:19.458Z,0
2016-11-01T02:15:33.117Z,0
2016-11-01T02:16:46.146Z,0
2016-11-01T02:17:59.262Z,0
2016-11-01T02:19:12.913Z,0
2016-11-01T02:20:26.575Z,0
2016-11-01T02:21:40.256Z,0
2016-11-01T02:22:53.879Z,0
2016-11-01T02:24:07.574Z,0
2016-11-01T02:25:21.557Z,0
2016-11-01T02:26:35.246Z,0
2016-11-01T02:27:48.414Z,0
2016-11-01T02:29:01.623Z,0
2016-11-01T02:30:15.357Z,0
2016-11-01T02:31:28.980Z,0
2016-11-01T02:32:42.579Z,0
2016-11-01T02:33:56.145Z,0
2016-11-01T02:35:09.216Z,0
2016-11-01T02:36:22.880Z,0
2016-11-01T02:37:36.486Z,0
2016-11-01T02:38:50.333Z,0
2016-11-01T02:40:04.039Z,0
2016-11-01T02:41:17.448Z,0
2016-11-01T02:42:31.081Z,0
2016-11-01T02:43:43.971Z,0
2016-11-01T02:44:57.383Z,0
2016-11-01T02:46:10.984Z,0
2016-11-01T02:47:24.604Z,0
2016-11-01T02:48:37.906Z,0
2016-11-01T02:49:51.642Z,0
2016-11-01T02:51:05.267Z,0
2016-11-01T02:52:18.041Z,0
2016-11-01T02:53:31.726Z,0
2016-11-01T02:54:45.340Z,0
2016-11-01T02:55:58.957Z,0
2016-11-01T02:57:12.024Z,0
2016-11-01T02:58:25.625Z,0
2016-11-01T02:59:39.248Z,0
2016-11-01T03:00:52.952Z,0
2016-11-01T03:02:06.569Z,0
2016-11-01T03:03:20.302Z,0
2016-11-01T03:04:33.940Z,0
2016-11-01T03:05:47.531Z,0
2016-11-01T03:07:01.151Z,0
2016-11-01T03:08:14.848Z,0
2016-11-01T03:09:28.493Z,0
2016-11-01T03:10:41.600Z,0
2016-11-01T03:11:54.695Z,0
2016-11-01T03:13:08.401Z,0
2016-11-01T03:14:22.045Z,0
2016-11-01T03:15:35.730Z,0
2016-11-01T03:16:48.871Z,0
2016-11-01T03:18:02.528Z,0
2016-11-01T03:19:16.202Z,0
2016-11-01T03:20:29.855Z,0
2016-11-01T03:21:43.503Z,0
2016-11-01T03:22:57.145Z,0
2016-11-01T03:24:11.010Z,0
2016-11-01T03:25:24.394Z,0
2016-11-01T03:26:38.130Z,0
2016-11-01T03:27:51.809Z,0
2016-11-01T03:29:05.458Z,0
2016-11-01T03:30:19.134Z,0
2016-11-01T03:31:32.757Z,0
2016-11-01T03:32:46.436Z,0
2016-11-01T03:34:00.112Z,0
2016-11-01T03:35:14.078Z,0
2016-11-01T03:36:27.224Z,0
2016-11-01T03:37:41.042Z,0
2016-11-01T03:38:54.680Z,0
2016-11-01T03:40:08.382Z,0
2016-11-01T03:41:22.019Z,0
2016-11-01T03:42:35.661Z,0
2016-11-01T03:43:49.211Z,0
2016-11-01T03:45:02.820Z,0
2016-11-01T03:46:16.551Z,0
2016-11-01T03:47:29.619Z,0
2016-11-01T03:48:42.706Z,0
2016-11-01T03:49:56.365Z,0
2016-11-01T03:51:09.971Z,0
2016-11-01T03:52:23.625Z,0
2016-11-01T03:53:37.006Z,0
2016-11-01T03:54:50.665Z,0
2016-11-01T03:56:04.323Z,0
2016-11-01T03:57:17.941Z,0
2016-11-01T03:58:31.661Z,0
2016-11-01T03:59:45.349Z,0
2016-11-01T04:00:58.969Z,0
2016-11-01T04:02:12.656Z,0
2016-11-01T04:03:26.034Z,0
2016-11-01T04:04:39.692Z,0
2016-11-01T04:05:53.298Z,0
2016-11-01T04:07:06.921Z,0
2016-11-01T04:08:20.630Z,0
2016-11-01T04:09:34.375Z,0
2016-11-01T04:10:48.052Z,0
2016-11-01T04:12:01.737Z,0
2016-11-01T04:13:14.949Z,0
2016-11-01T04:14:28.637Z,0
2016-11-01T04:15:42.326Z,0
2016-11-01T04:16:55.948Z,0
2016-11-01T04:18:09.621Z,0
2016-11-01T04:19:23.241Z,0
2016-11-01T04:20:36.865Z,0
2016-11-01T04:21:50.528Z,0
2016-11-01T04:23:04.185Z,0
2016-11-01T04:24:17.770Z,0
2016-11-01T04:25:31.361Z,0
2016-11-01T04:26:44.994Z,0
2016-11-01T04:27:58.603Z,0
2016-11-01T04:29:11.716Z,0
2016-11-01T04:30:25.413Z,0
2016-11-01T04:31:39.009Z,0
2016-11-01T04:32:52.701Z,0
2016-11-01T04:34:06.294Z,0
2016-11-01T04:35:19.439Z,0
2016-11-01T04:36:33.039Z,0
2016-11-01T04:37:46.739Z,0
2016-11-01T04:39:00.444Z,0
2016-11-01T04:40:14.214Z,0
2016-11-01T04:41:27.845Z,0
2016-11-01T04:42:41.443Z,0
2016-11-01T04:43:55.124Z,0
2016-11-01T04:45:08.771Z,0
2016-11-01T04:46:22.113Z,0
2016-11-01T04:47:35.705Z,0
2016-11-01T04:48:49.312Z,0
2016-11-01T04:50:02.895Z,0
2016-11-01T04:51:16.497Z,0
2016-11-01T04:52:30.093Z,0
2016-11-01T04:53:42.904Z,0
2016-11-01T04:54:56.476Z,0
2016-11-01T04:56:10.078Z,0
2016-11-01T04:57:23.646Z,0
2016-11-01T04:58:37.264Z,0
2016-11-01T04:59:50.080Z,0
2016-11-01T05:01:03.734Z,0
2016-11-01T05:02:17.386Z,0
2016-11-01T05:03:31.091Z,0
2016-11-01T05:04:44.682Z,0
2016-11-01T05:05:58.395Z,0
2016-11-01T05:07:11.744Z,0
2016-11-01T05:08:25.397Z,0
2016-11-01T05:09:39.086Z,0
2016-11-01T05:10:52.705Z,0
2016-11-01T05:12:06.351Z,0
2016-11-01T05:13:20.008Z,0
2016-11-01T05:14:33.665Z,0
2016-11-01T05:15:46.840Z,0
2016-11-01T05:17:00.547Z,0
2016-11-01T05:18:14.255Z,0
2016-11-01T05:19:27.896Z,0
2016-11-01T05:20:41.475Z,0
2016-11-01T05:21:55.182Z,0
2016-11-01T05:23:08.293Z,0
2016-11-01T05:24:21.634Z,0
2016-11-01T05:25:35.267Z,0
2016-11-01T05:26:48.921Z,0
2016-11-01T05:28:02.022Z,0
2016-11-01T05:29:15.663Z,0
2016-11-01T05:30:28.768Z,0
2016-11-01T05:31:41.916Z,0
2016-11-01T05:32:55.526Z,0
2016-11-01T05:34:09.111Z,0
2016-11-01T05:35:22.702Z,0
2016-11-01T05:36:35.804Z,0
2016-11-01T05:37:49.388Z,0
2016-11-01T05:39:03.017Z,0
2016-11-01T05:40:16.138Z,0
2016-11-01T05:41:29.822Z,0
2016-11-01T05:42:43.424Z,0
2016-11-01T05:43:57.058Z,0
2016-11-01T05:45:11.000Z,0
2016-11-01T05:46:24.006Z,0
2016-11-01T05:47:37.602Z,0
2016-11-01T05:48:51.484Z,0
2016-11-01T05:50:04.101Z,0
2016-11-01T05:51:17.502Z,0
2016-11-01T05:52:31.122Z,0
2016-11-01T05:53:44.748Z,0
2016-11-01T05:54:58.365Z,0
2016-11-01T05:56:11.735Z,0
2016-11-01T05:57:24.316Z,0
2016-11-01T05:58:37.991Z,0
2016-11-01T05:59:51.647Z,0
2016-11-01T06:01:04.223Z,0
2016-11-01T06:02:17.398Z,0
2016-11-01T06:03:30.604Z,0
2016-11-01T06:04:43.714Z,0
2016-11-01T06:05:56.573Z,0
2016-11-01T06:07:09.631Z,0
2016-11-01T06:08:23.339Z,0
2016-11-01T06:09:36.949Z,0
2016-11-01T06:10:50.638Z,0
2016-11-01T06:12:04.220Z,0
2016-11-01T06:13:17.827Z,0
2016-11-01T06:14:31.483Z,0
2016-11-01T06:15:45.117Z,0
2016-11-01T06:16:58.737Z,0
2016-11-01T06:18:11.263Z,0
2016-11-01T06:19:24.908Z,0
2016-11-01T06:20:38.016Z,0
2016-11-01T06:21:51.678Z,0
2016-11-01T06:23:05.317Z,0
2016-11-01T06:24:18.943Z,0
2016-11-01T06:25:32.590Z,0
2016-11-01T06:26:46.187Z,0
2016-11-01T06:27:59.312Z,0
2016-11-01T06:29:12.894Z,0
2016-11-01T06:30:26.490Z,0
2016-11-01T06:31:40.061Z,0
2016-11-01T06:32:53.594Z,0
2016-11-01T06:34:07.203Z,0
2016-11-01T06:35:20.841Z,0
2016-11-01T06:36:33.945Z,0
2016-11-01T06:37:47.216Z,0
2016-11-01T06:39:00.869Z,0
2016-11-01T06:40:14.530Z,0
2016-11-01T06:41:28.178Z,0
2016-11-01T06:42:41.045Z,0
2016-11-01T06:43:54.661Z,0
2016-11-01T06:45:08.397Z,0
2016-11-01T06:46:21.516Z,0
2016-11-01T06:47:35.127Z,0
2016-11-01T06:48:48.203Z,0
2016-11-01T06:50:00.791Z,0
2016-11-01T06:51:14.450Z,0
2016-11-01T06:52:28.094Z,0
2016-11-01T06:53:41.756Z,0
2016-11-01T06:54:55.353Z,0
2016-11-01T06:56:08.428Z,0
2016-11-01T06:57:22.087Z,0
2016-11-01T06:58:35.692Z,0
2016-11-01T06:59:48.263Z,0
2016-11-01T07:01:01.852Z,0
2016-11-01T07:02:15.426Z,0
2016-11-01T07:03:28.515Z,0
2016-11-01T07:04:41.555Z,0
2016-11-01T07:05:55.203Z,0
2016-11-01T07:07:08.841Z,0
2016-11-01T07:08:22.431Z,0
2016-11-01T07:09:36.113Z,0
2016-11-01T07:10:49.711Z,0
2016-11-01T07:12:02.813Z,0
2016-11-01T07:13:16.359Z,0
2016-11-01T07:14:30.044Z,0
2016-11-01T07:15:43.330Z,0
2016-11-01T07:16:56.960Z,0
2016-11-01T07:18:09.994Z,0
2016-11-01T07:19:23.631Z,0
2016-11-01T07:20:36.731Z,0
2016-11-01T07:21:49.857Z,0
2016-11-01T07:23:03.469Z,0
2016-11-01T07:24:17.315Z,0
2016-11-01T07:25:30.974Z,0
2016-11-01T07:26:44.200Z,0
2016-11-01T07:27:57.803Z,0
2016-11-01T07:29:11.388Z,0
2016-11-01T07:30:24.994Z,0
2016-11-01T07:31:38.601Z,0
2016-11-01T07:32:52.279Z,0
2016-11-01T07:34:04.812Z,0
2016-11-01T07:35:18.525Z,0
2016-11-01T07:36:32.100Z,0
2016-11-01T07:37:45.752Z,0
2016-11-01T07:38:58.822Z,0
2016-11-01T07:40:12.466Z,0
2016-11-01T07:41:26.089Z,0
2016-11-01T07:42:39.737Z,0
2016-11-01T07:43:53.349Z,0
2016-11-01T07:45:06.959Z,0
2016-11-01T07:46:20.460Z,0
2016-11-01T07:47:33.778Z,0
2016-11-01T07:48:47.383Z,0
2016-11-01T07:50:00.997Z,0
2016-11-01T07:51:14.609Z,0
2016-11-01T07:52:28.224Z,0
2016-11-01T07:53:41.844Z,0
2016-11-01T07:54:54.424Z,0
2016-11-01T07:56:07.581Z,0
2016-11-01T07:57:20.622Z,0
2016-11-01T07:58:33.820Z,0
2016-11-01T07:59:47.457Z,0
2016-11-01T08:01:01.063Z,0
2016-11-01T08:02:14.687Z,0
2016-11-01T08:03:28.268Z,0
2016-11-01T08:04:41.924Z,0
2016-11-01T08:05:55.035Z,0
2016-11-01T08:07:08.675Z,0
2016-11-01T08:08:21.763Z,4
2016-11-01T08:09:34.886Z,4
2016-11-01T08:10:48.624Z,0
2016-11-01T08:12:02.053Z,0
2016-11-01T08:13:15.726Z,4
2016-11-01T08:14:29.387Z,4
2016-11-01T08:15:42.988Z,4
2016-11-01T08:16:56.597Z,8
2016-11-01T08:18:10.185Z,8
2016-11-01T08:19:23.904Z,8
2016-11-01T08:20:38.077Z,8
2016-11-01T08:21:51.706Z,12
2016-11-01T08:23:05.358Z,16
2016-11-01T08:24:18.640Z,16
2016-11-01T08:25:32.233Z,16
2016-11-01T08:26:45.580Z,24
2016-11-01T08:27:58.658Z,32
2016-11-01T08:29:12.046Z,32
2016-11-01T08:30:25.695Z,36
2016-11-01T08:31:39.251Z,48
2016-11-01T08:32:52.894Z,52
2016-11-01T08:34:05.979Z,60
2016-11-01T08:35:19.573Z,72
2016-11-01T08:36:33.196Z,80
2016-11-01T08:37:46.842Z,88
2016-11-01T08:38:59.892Z,96
2016-11-01T08:40:12.979Z,100
2016-11-01T08:41:26.608Z,104
2016-11-01T08:42:40.295Z,112
2016-11-01T08:43:53.885Z,116
2016-11-01T08:45:07.525Z,128
2016-11-01T08:46:20.556Z,136
2016-11-01T08:47:33.686Z,152
2016-11-01T08:48:46.891Z,160
2016-11-01T08:49:59.934Z,172
2016-11-01T08:51:13.555Z,176
2016-11-01T08:52:26.711Z,184
2016-11-01T08:53:39.809Z,184
2016-11-01T08:54:53.508Z,192
2016-11-01T08:56:07.203Z,200
2016-11-01T08:57:20.756Z,208
2016-11-01T08:58:34.349Z,216
2016-11-01T08:59:47.987Z,228
2016-11-01T09:01:01.063Z,240
2016-11-01T09:02:14.316Z,256
2016-11-01T09:03:27.912Z,264
2016-11-01T09:04:41.208Z,272
2016-11-01T09:05:54.912Z,276
2016-11-01T09:07:08.574Z,276
2016-11-01T09:08:22.194Z,280
2016-11-01T09:09:35.869Z,288
2016-11-01T09:10:49.510Z,300
2016-11-01T09:12:03.179Z,316
2016-11-01T09:13:16.846Z,328
2016-11-01T09:14:30.492Z,340
2016-11-01T09:15:44.320Z,348
2016-11-01T09:16:58.052Z,356
2016-11-01T09:18:11.438Z,360
2016-11-01T09:19:23.421Z,368
2016-11-01T09:20:37.277Z,376
2016-11-01T09:21:50.990Z,388
2016-11-01T09:23:04.647Z,404
2016-11-01T09:24:18.255Z,428
2016-11-01T09:25:31.421Z,456
2016-11-01T09:26:44.529Z,484
2016-11-01T09:27:58.143Z,504
2016-11-01T09:29:11.245Z,528
2016-11-01T09:30:24.850Z,548
2016-11-01T09:31:37.463Z,564
2016-11-01T09:32:50.557Z,584
2016-11-01T09:34:04.210Z,604
2016-11-01T09:35:17.866Z,620
2016-11-01T09:36:31.540Z,628
2016-11-01T09:37:44.603Z,628
2016-11-01T09:38:58.208Z,624
2016-11-01T09:40:11.884Z,620
2016-11-01T09:41:25.005Z,620
2016-11-01T09:42:38.575Z,624
2016-11-01T09:43:52.214Z,636
2016-11-01T09:45:05.254Z,648
2016-11-01T09:46:18.363Z,652
2016-11-01T09:47:31.477Z,656
2016-11-01T09:48:44.633Z,664
2016-11-01T09:49:57.776Z,676
2016-11-01T09:51:11.387Z,688
2016-11-01T09:52:25.108Z,708
2016-11-01T09:53:38.223Z,732
2016-11-01T09:54:51.846Z,760
2016-11-01T09:56:04.992Z,792
2016-11-01T09:57:18.686Z,820
2016-11-01T09:58:32.396Z,828
2016-11-01T09:59:45.034Z,820
2016-11-01T10:00:58.689Z,808
2016-11-01T10:02:12.443Z,796
2016-11-01T10:03:25.578Z,788
2016-11-01T10:04:39.147Z,780
2016-11-01T10:05:52.236Z,784
2016-11-01T10:07:05.877Z,796
2016-11-01T10:08:19.614Z,828
2016-11-01T10:09:33.285Z,864
2016-11-01T10:10:46.902Z,876
2016-11-01T10:12:00.506Z,896
2016-11-01T10:13:14.379Z,924
2016-11-01T10:14:28.125Z,940
2016-11-01T10:15:41.791Z,960
2016-11-01T10:16:55.207Z,964
2016-11-01T10:18:08.307Z,972
2016-11-01T10:19:21.934Z,1004
2016-11-01T10:20:35.612Z,1068
2016-11-01T10:21:49.272Z,1072
2016-11-01T10:23:02.833Z,1112
2016-11-01T10:24:16.502Z,1096
2016-11-01T10:25:30.131Z,1100
2016-11-01T10:26:43.191Z,1112
2016-11-01T10:27:56.853Z,1116
2016-11-01T10:29:10.457Z,1124
2016-11-01T10:30:23.567Z,1116
2016-11-01T10:31:37.191Z,1176
2016-11-01T10:32:50.840Z,1196
2016-11-01T10:34:02.795Z,1124
2016-11-01T10:35:15.863Z,1116
2016-11-01T10:36:29.475Z,1128
2016-11-01T10:37:43.143Z,1144
2016-11-01T10:38:57.030Z,1152
2016-11-01T10:40:10.685Z,1160
2016-11-01T10:41:24.308Z,1180
2016-11-01T10:42:37.393Z,1176
2016-11-01T10:43:50.785Z,1168
2016-11-01T10:45:04.508Z,1172
2016-11-01T10:46:18.156Z,1200
2016-11-01T10:47:31.871Z,1200
2016-11-01T10:48:45.585Z,1208
2016-11-01T10:49:58.712Z,1180
2016-11-01T10:51:11.817Z,1196
2016-11-01T10:52:24.897Z,1240
2016-11-01T10:53:38.528Z,1236
2016-11-01T10:54:51.732Z,1240
2016-11-01T10:56:05.408Z,1272
2016-11-01T10:57:18.076Z,1280
2016-11-01T10:58:31.715Z,1328
2016-11-01T10:59:45.287Z,1332
2016-11-01T11:00:58.965Z,1236
2016-11-01T11:02:12.010Z,1108
2016-11-01T11:03:25.755Z,1100
2016-11-01T11:04:39.429Z,1116
2016-11-01T11:05:53.039Z,1156
2016-11-01T11:07:06.676Z,1148
2016-11-01T11:08:20.593Z,1204
2016-11-01T11:09:33.622Z,1224
2016-11-01T11:10:47.530Z,1172
2016-11-01T11:12:01.156Z,1096
2016-11-01T11:13:14.895Z,1120
2016-11-01T11:14:28.511Z,1144
2016-11-01T11:15:42.141Z,1136
2016-11-01T11:16:55.773Z,1120
2016-11-01T11:18:08.841Z,1100
2016-11-01T11:19:22.440Z,1036
2016-11-01T11:20:36.143Z,1060
2016-11-01T11:21:49.773Z,1076
2016-11-01T11:23:03.466Z,1116
2016-11-01T11:24:17.109Z,1096
2016-11-01T11:25:30.755Z,1048
2016-11-01T11:26:44.368Z,960
2016-11-01T11:27:57.528Z,1068
2016-11-01T11:29:11.283Z,1068
2016-11-01T11:30:24.980Z,1232
2016-11-01T11:31:38.660Z,1312
2016-11-01T11:32:52.276Z,1396
2016-11-01T11:34:05.886Z,1432
2016-11-01T11:35:18.419Z,1484
2016-11-01T11:36:32.038Z,1504
2016-11-01T11:37:45.653Z,1508
2016-11-01T11:38:59.223Z,1460
2016-11-01T11:40:12.866Z,1472
2016-11-01T11:41:26.543Z,1548
2016-11-01T11:42:40.162Z,1604
2016-11-01T11:43:53.752Z,1604
2016-11-01T11:45:06.959Z,1512
2016-11-01T11:46:20.041Z,1336
2016-11-01T11:47:33.655Z,1304
2016-11-01T11:48:47.512Z,1268
2016-11-01T11:50:01.132Z,1384
2016-11-01T11:51:14.804Z,1472
2016-11-01T11:52:28.395Z,1464
2016-11-01T11:53:41.692Z,1428
2016-11-01T11:54:55.327Z,1444
2016-11-01T11:56:08.980Z,1444
2016-11-01T11:57:22.664Z,1468
2016-11-01T11:58:36.252Z,1400
2016-11-01T11:59:49.906Z,1444
2016-11-01T12:01:03.522Z,1524
2016-11-01T12:02:17.508Z,1520
2016-11-01T12:03:30.626Z,1360
2016-11-01T12:04:44.392Z,1160
2016-11-01T12:05:57.493Z,996
2016-11-01T12:07:11.306Z,1072
2016-11-01T12:08:24.955Z,1368
2016-11-01T12:09:38.162Z,1072
2016-11-01T12:10:51.233Z,1084
2016-11-01T12:12:04.426Z,1180
2016-11-01T12:13:17.551Z,1596
2016-11-01T12:14:30.612Z,1732
2016-11-01T12:15:43.171Z,2176
2016-11-01T12:16:56.594Z,2592
2016-11-01T12:18:09.749Z,2288
2016-11-01T12:19:22.823Z,1988
2016-11-01T12:20:35.979Z,1712
2016-11-01T12:21:49.551Z,1676
2016-11-01T12:23:03.211Z,1808
2016-11-01T12:24:16.849Z,3248
2016-11-01T12:25:29.918Z,3348
2016-11-01T12:26:43.649Z,3168
2016-11-01T12:27:56.823Z,2792
2016-11-01T12:29:09.979Z,3512
2016-11-01T12:30:23.612Z,2336
2016-11-01T12:31:37.303Z,1668
2016-11-01T12:32:50.967Z,1940
2016-11-01T12:34:04.579Z,1820
2016-11-01T12:35:18.291Z,3176
2016-11-01T12:36:31.893Z,2176
2016-11-01T12:37:45.316Z,2080
2016-11-01T12:38:58.959Z,1940
2016-11-01T12:40:12.559Z,1708
2016-11-01T12:41:26.159Z,1136
2016-11-01T12:42:38.957Z,1024
2016-11-01T12:43:52.655Z,728
2016-11-01T12:45:06.333Z,920
2016-11-01T12:46:19.482Z,1312
2016-11-01T12:47:33.120Z,1416
2016-11-01T12:48:45.978Z,1604
2016-11-01T12:49:59.601Z,1488
2016-11-01T12:51:13.298Z,1812
2016-11-01T12:52:25.872Z,1504
2016-11-01T12:53:39.516Z,1720
2016-11-01T12:54:52.582Z,1720
2016-11-01T12:56:05.709Z,1604
2016-11-01T12:57:18.810Z,1328
2016-11-01T12:58:32.469Z,1420
2016-11-01T12:59:45.538Z,1332
2016-11-01T13:00:59.168Z,1444
2016-11-01T13:02:12.804Z,1676
2016-11-01T13:03:25.915Z,1872
2016-11-01T13:04:39.571Z,1740
2016-11-01T13:05:52.683Z,1940
2016-11-01T13:07:05.808Z,1788
2016-11-01T13:08:19.465Z,2064
2016-11-01T13:09:32.564Z,1536
2016-11-01T13:10:45.738Z,2036
2016-11-01T13:11:59.403Z,1664
2016-11-01T13:13:12.517Z,2340
2016-11-01T13:14:25.720Z,3296
2016-11-01T13:15:38.825Z,4808
2016-11-01T13:16:52.541Z,2708
2016-11-01T13:18:06.134Z,2460
2016-11-01T13:19:19.829Z,2096
2016-11-01T13:20:33.568Z,1552
2016-11-01T13:21:46.651Z,1248
2016-11-01T13:22:59.766Z,1384
2016-11-01T13:24:12.825Z,1716
2016-11-01T13:25:26.506Z,2280
2016-11-01T13:26:40.214Z,3216
2016-11-01T13:27:53.830Z,3468
2016-11-01T13:29:07.517Z,2736
2016-11-01T13:30:21.082Z,1924
2016-11-01T13:31:34.669Z,2064
2016-11-01T13:32:47.778Z,2188
2016-11-01T13:34:00.563Z,2592
2016-11-01T13:35:13.703Z,3376
2016-11-01T13:36:27.376Z,2724
2016-11-01T13:37:40.557Z,2648
2016-11-01T13:38:54.192Z,3632
2016-11-01T13:40:06.838Z,4940
2016-11-01T13:41:20.166Z,7672
2016-11-01T13:42:33.784Z,3516
2016-11-01T13:43:47.567Z,3432
2016-11-01T13:45:01.279Z,2848
2016-11-01T13:46:14.624Z,2548
2016-11-01T13:47:28.250Z,2128
2016-11-01T13:48:41.934Z,2212
2016-11-01T13:49:55.554Z,2472
2016-11-01T13:51:09.271Z,4768
2016-11-01T13:52:22.861Z,5480
2016-11-01T13:53:35.939Z,3272
2016-11-01T13:54:49.075Z,8528
2016-11-01T13:56:02.172Z,9188
2016-11-01T13:57:15.859Z,4912
2016-11-01T13:58:28.999Z,2964
2016-11-01T13:59:42.066Z,3792
2016-11-01T14:00:55.748Z,2048
2016-11-01T14:02:08.837Z,1824
2016-11-01T14:05:00.768Z,7436
2016-11-01T14:06:14.743Z,1460
2016-11-01T14:07:28.371Z,1232
2016-11-01T14:08:42.038Z,1140
2016-11-01T14:09:55.652Z,1088
2016-11-01T14:11:09.278Z,1204
2016-11-01T14:12:22.835Z,1140
2016-11-01T14:13:36.459Z,1240
2016-11-01T14:14:50.086Z,1520
2016-11-01T14:16:03.385Z,1764
2016-11-01T14:17:15.952Z,2432
2016-11-01T14:18:29.549Z,3076
2016-11-01T14:19:42.324Z,3352
2016-11-01T14:20:55.884Z,3884
2016-11-01T14:22:09.569Z,5092
2016-11-01T14:23:23.174Z,3704
2016-11-01T14:24:36.181Z,2776
2016-11-01T14:25:49.742Z,2528
2016-11-01T14:27:03.323Z,2668
2016-11-01T14:28:16.891Z,2640
2016-11-01T14:29:30.532Z,4860
2016-11-01T14:30:43.068Z,2808
2016-11-01T14:31:55.607Z,3084
2016-11-01T14:33:09.273Z,2692
2016-11-01T14:34:22.338Z,2540
2016-11-01T14:35:35.913Z,2504
2016-11-01T14:36:49.489Z,2372
2016-11-01T14:38:03.084Z,2424
2016-11-01T14:39:16.686Z,2792
2016-11-01T14:40:29.238Z,9576
2016-11-01T14:41:42.254Z,5596
2016-11-01T14:42:55.858Z,10824
2016-11-01T14:44:08.917Z,6316
2016-11-01T14:45:21.438Z,10428
2016-11-01T14:46:34.991Z,10588
2016-11-01T14:47:47.999Z,11300
2016-11-01T14:49:00.032Z,3620
2016-11-01T14:50:13.625Z,6868
2016-11-01T14:51:26.641Z,4792
2016-11-01T14:52:39.721Z,3996
2016-11-01T14:53:53.326Z,6864
2016-11-01T14:55:06.977Z,5524
2016-11-01T14:56:20.029Z,5380
2016-11-01T14:57:33.633Z,6424
2016-11-01T14:58:47.230Z,5416
2016-11-01T15:00:00.827Z,5320
2016-11-01T15:01:14.533Z,10380
2016-11-01T15:02:28.150Z,10288
2016-11-01T15:03:41.356Z,10256
2016-11-01T15:04:54.956Z,10608
2016-11-01T15:06:08.010Z,10528
2016-11-01T15:07:21.624Z,10528
2016-11-01T15:08:35.242Z,10864
2016-11-01T15:09:48.290Z,6540
2016-11-01T15:11:00.858Z,7500
2016-11-01T15:12:14.498Z,9296
2016-11-01T15:13:27.086Z,7392
2016-11-01T15:14:40.700Z,3236
2016-11-01T15:15:54.263Z,12260
2016-11-01T15:17:07.862Z,5812
2016-11-01T15:18:21.486Z,10188
2016-11-01T15:19:35.112Z,11028
2016-11-01T15:20:48.085Z,11136
2016-11-01T15:22:01.147Z,11428
2016-11-01T15:23:14.974Z,3900
2016-11-01T15:24:28.618Z,9096
2016-11-01T15:25:42.285Z,12132
2016-11-01T15:26:54.843Z,3588
2016-11-01T15:28:08.738Z,3100
2016-11-01T15:29:21.737Z,11604
2016-11-01T15:30:35.324Z,2020
2016-11-01T15:31:48.444Z,12092
2016-11-01T15:33:02.066Z,11816
2016-11-01T15:34:15.703Z,11464
2016-11-01T15:35:28.763Z,8296
2016-11-01T15:36:42.334Z,3164
2016-11-01T15:37:55.353Z,8676
2016-11-01T15:39:08.893Z,11196
2016-11-01T15:40:21.963Z,11212
2016-11-01T15:41:35.614Z,11428
2016-11-01T15:42:49.268Z,11204
2016-11-01T15:44:01.700Z,11408
2016-11-01T15:45:15.223Z,11620
2016-11-01T15:46:28.258Z,3132
2016-11-01T15:47:41.307Z,12212
2016-11-01T15:48:54.934Z,8760
2016-11-01T15:50:08.751Z,11284
2016-11-01T15:51:21.786Z,3884
2016-11-01T15:52:35.325Z,2016
2016-11-01T15:53:48.434Z,11768
2016-11-01T15:55:02.065Z,7136
2016-11-01T15:56:15.103Z,11720
2016-11-01T15:57:28.161Z,11324
2016-11-01T15:58:41.900Z,11644
2016-11-01T15:59:55.450Z,11656
2016-11-01T16:01:08.773Z,11828
2016-11-01T16:02:22.369Z,11256
2016-11-01T16:03:35.923Z,11664
2016-11-01T16:04:48.767Z,11716
2016-11-01T16:06:02.460Z,11368
2016-11-01T16:07:16.152Z,1928
2016-11-01T16:08:29.742Z,11456
2016-11-01T16:09:42.809Z,11524
2016-11-01T16:10:56.417Z,11788
2016-11-01T16:12:09.439Z,11700
2016-11-01T16:13:22.535Z,11832
2016-11-01T16:14:36.071Z,11920
2016-11-01T16:15:49.687Z,11040
2016-11-01T16:17:03.269Z,11220
2016-11-01T16:18:15.786Z,11168
2016-11-01T16:19:28.812Z,11028
2016-11-01T16:20:56.357Z,2484
2016-11-01T16:22:09.960Z,1868
2016-11-01T16:23:22.758Z,10764
2016-11-01T16:24:35.944Z,11128
2016-11-01T16:25:49.497Z,11428
2016-11-01T16:27:03.088Z,11508
2016-11-01T16:28:16.731Z,10960
2016-11-01T16:29:30.299Z,11236
2016-11-01T16:30:43.662Z,9840
2016-11-01T16:31:57.227Z,1960
2016-11-01T16:33:10.793Z,7092
2016-11-01T16:34:23.875Z,2380
2016-11-01T16:35:37.389Z,1748
2016-11-01T16:36:50.634Z,2060
2016-11-01T16:38:03.199Z,8184
2016-11-01T16:39:16.785Z,8072
2016-11-01T16:40:30.343Z,7400
2016-11-01T16:41:42.840Z,8400
2016-11-01T16:42:56.359Z,8392
2016-11-01T16:44:09.980Z,8244
2016-11-01T16:45:23.041Z,8264
2016-11-01T16:46:36.631Z,8144
2016-11-01T16:47:50.200Z,8300
2016-11-01T16:49:03.841Z,8324
2016-11-01T16:50:17.383Z,8260
2016-11-01T16:51:31.002Z,8308
2016-11-01T16:52:44.605Z,7736
2016-11-01T16:53:58.246Z,8016
2016-11-01T16:55:12.000Z,8008
2016-11-01T16:56:25.547Z,8220
2016-11-01T16:57:39.137Z,2940
2016-11-01T16:58:52.688Z,7972
2016-11-01T17:00:06.251Z,8044
2016-11-01T17:01:19.868Z,7748
2016-11-01T17:02:33.486Z,7684
2016-11-01T17:03:47.078Z,8052
2016-11-01T17:05:00.097Z,8124
2016-11-01T17:06:13.686Z,7868
2016-11-01T17:07:27.244Z,1328
2016-11-01T17:08:40.256Z,7716
2016-11-01T17:09:53.835Z,7868
2016-11-01T17:11:07.476Z,7812
2016-11-01T17:12:20.512Z,7564